YAY weather

St. Anthony Airport
St. Anthony, Newfoundland and Labrador, Canada

Public forecast

Using degrees Celsius for public forecast. Weather courtesy of forecast.io.

METAR (pilot weather report)

Retrieved 2019/07/17 18:00 UTC (4 minutes ago):

CYAY 171800Z AUTO 12016KT 9SM CLR 21/13 A2972 RMK SLP067 DENSITY ALT 1000FT

TAF (pilot weather forecast)

Retrieved 2019/07/17 14:42 UTC (3 hours ago):

TAF TAF CYAY 171338Z 1714/1802 15008KT P6SM SCT008 TEMPO 1714/1715 BKN008 FM172000 22012G22KT P6SM BKN080 RMK FCST BASED ON AUTO OBS. NXT FCST BY 172000Z